createdAt,value
2018-12-07T00:02:40.556Z,6.67
2018-12-07T00:05:51.974Z,6.87
2018-12-07T00:09:04.036Z,7.00
2018-12-07T00:12:15.306Z,6.83
2018-12-07T00:15:26.689Z,6.00
2018-12-07T00:18:37.887Z,7.50
2018-12-07T00:21:49.661Z,8.10
2018-12-07T00:25:00.639Z,5.97
2018-12-07T00:28:11.666Z,6.80
2018-12-07T00:31:22.689Z,7.60
2018-12-07T00:34:34.153Z,6.97
2018-12-07T00:37:45.666Z,6.25
2018-12-07T00:40:57.577Z,6.30
2018-12-07T00:44:08.626Z,6.85
2018-12-07T00:47:19.726Z,7.43
2018-12-07T00:50:30.869Z,6.20
2018-12-07T00:53:43.351Z,7.00
2018-12-07T00:56:54.999Z,6.87
2018-12-07T01:00:07.617Z,6.23
2018-12-07T01:03:19.961Z,6.30
2018-12-07T01:06:31.599Z,7.70
2018-12-07T01:09:42.678Z,6.70
2018-12-07T01:16:11.041Z,6.47
2018-12-07T01:19:22.400Z,5.37
2018-12-07T01:22:33.985Z,6.30
2018-12-07T01:25:45.651Z,5.47
2018-12-07T01:28:56.751Z,4.60
2018-12-07T01:32:08.645Z,5.00
2018-12-07T01:35:19.789Z,4.77
2018-12-07T01:38:30.758Z,4.57
2018-12-07T01:41:42.547Z,5.60
2018-12-07T01:44:54.202Z,4.47
2018-12-07T01:48:07.134Z,4.20
2018-12-07T01:51:18.215Z,4.28
2018-12-07T01:54:29.993Z,4.20
2018-12-07T01:57:42.860Z,4.80
2018-12-07T02:00:54.218Z,4.17
2018-12-07T02:04:06.581Z,4.50
2018-12-07T02:07:38.323Z,3.25
2018-12-07T02:10:50.085Z,3.40
2018-12-07T02:14:01.166Z,3.50
2018-12-07T02:17:12.383Z,4.10
2018-12-07T02:20:24.361Z,2.60
2018-12-07T02:23:35.762Z,2.73
2018-12-07T02:26:46.759Z,2.80
2018-12-07T02:29:58.020Z,2.90
2018-12-07T02:33:09.487Z,3.70
2018-12-07T02:36:21.707Z,2.62
2018-12-07T02:39:33.049Z,2.72
2018-12-07T02:42:44.275Z,2.43
2018-12-07T02:45:55.651Z,3.10
2018-12-07T02:49:06.613Z,3.50
2018-12-07T02:52:17.740Z,2.85
2018-12-07T02:55:28.687Z,2.70
2018-12-07T02:58:40.876Z,3.20
2018-12-07T03:01:52.081Z,2.83
2018-12-07T03:05:03.978Z,2.67
2018-12-07T03:08:15.730Z,2.75
2018-12-07T03:11:26.881Z,2.80
2018-12-07T03:14:38.360Z,2.53
2018-12-07T03:17:49.372Z,3.10
2018-12-07T03:21:01.355Z,2.40
2018-12-07T03:24:12.558Z,3.13
2018-12-07T03:27:23.681Z,2.27
2018-12-07T03:30:34.697Z,2.87
2018-12-07T03:33:45.677Z,1.90
2018-12-07T03:36:57.202Z,2.10
2018-12-07T03:40:09.505Z,2.00
2018-12-07T03:43:20.752Z,2.20
2018-12-07T03:46:31.725Z,1.90
2018-12-07T03:49:44.160Z,1.60
2018-12-07T03:52:55.847Z,1.67
2018-12-07T03:56:07.464Z,1.90
2018-12-07T03:59:18.726Z,1.80
2018-12-07T04:02:31.089Z,1.60
2018-12-07T04:05:43.558Z,1.80
2018-12-07T04:08:54.995Z,1.42
2018-12-07T04:12:06.144Z,1.70
2018-12-07T04:15:17.574Z,1.83
2018-12-07T04:18:28.962Z,1.67
2018-12-07T04:21:40.968Z,1.60
2018-12-07T04:24:52.721Z,1.90
2018-12-07T04:28:03.965Z,1.80
2018-12-07T04:31:15.723Z,1.87
2018-12-07T04:34:26.858Z,1.80
2018-12-07T04:37:38.124Z,2.10
2018-12-07T04:40:49.336Z,2.80
2018-12-07T04:44:00.994Z,2.30
2018-12-07T04:47:12.935Z,2.40
2018-12-07T04:53:40.866Z,2.27
2018-12-07T04:56:52.555Z,2.33
2018-12-07T05:00:05.502Z,2.00
2018-12-07T05:03:17.013Z,2.20
2018-12-07T05:06:28.392Z,2.20
2018-12-07T05:09:40.066Z,2.20
2018-12-07T05:12:51.876Z,1.77
2018-12-07T05:16:02.781Z,2.20
2018-12-07T05:19:13.920Z,1.93
2018-12-07T05:22:25.559Z,1.80
2018-12-07T05:25:37.508Z,3.00
2018-12-07T05:28:49.467Z,1.60
2018-12-07T05:32:00.583Z,2.27
2018-12-07T05:35:11.484Z,2.20
2018-12-07T05:38:22.955Z,1.93
2018-12-07T05:41:33.929Z,1.80
2018-12-07T05:44:45.213Z,1.77
2018-12-07T05:47:56.458Z,1.85
2018-12-07T05:51:07.331Z,1.80
2018-12-07T05:54:18.460Z,2.00
2018-12-07T05:57:29.970Z,1.70
2018-12-07T06:00:42.307Z,1.92
2018-12-07T06:03:54.194Z,1.80
2018-12-07T06:07:06.158Z,1.70
2018-12-07T06:10:18.801Z,1.80
2018-12-07T06:13:30.201Z,2.00
2018-12-07T06:16:41.721Z,1.80
2018-12-07T06:19:53.537Z,1.90
2018-12-07T06:23:04.599Z,1.50
2018-12-07T06:26:16.071Z,1.57
2018-12-07T06:29:27.188Z,2.30
2018-12-07T06:32:38.267Z,1.67
2018-12-07T06:35:49.703Z,1.80
2018-12-07T06:39:01.305Z,1.80
2018-12-07T06:42:12.492Z,2.30
2018-12-07T06:45:23.941Z,1.92
2018-12-07T06:48:35.134Z,2.40
2018-12-07T06:51:46.777Z,1.80
2018-12-07T06:54:58.803Z,2.05
2018-12-07T06:58:09.966Z,1.63
2018-12-07T07:01:21.219Z,1.93
2018-12-07T07:04:32.354Z,1.67
2018-12-07T07:07:44.273Z,2.30
2018-12-07T07:10:56.047Z,2.40
2018-12-07T07:14:07.647Z,2.50
2018-12-07T07:17:19.856Z,2.30
2018-12-07T07:20:31.684Z,1.92
2018-12-07T07:23:43.696Z,2.30
2018-12-07T07:26:55.193Z,2.80
2018-12-07T07:30:11.115Z,2.10
2018-12-07T07:33:23.100Z,2.30
2018-12-07T07:36:34.631Z,2.43
2018-12-07T07:39:45.989Z,1.90
2018-12-07T07:42:57.657Z,2.30
2018-12-07T07:46:08.701Z,1.82
2018-12-07T07:49:20.141Z,1.90
2018-12-07T07:52:32.031Z,2.60
2018-12-07T07:55:43.849Z,1.90
2018-12-07T07:58:55.025Z,1.70
2018-12-07T08:02:07.203Z,2.10
2018-12-07T08:05:18.698Z,1.60
2018-12-07T08:08:30.740Z,2.13
2018-12-07T08:11:42.721Z,1.60
2018-12-07T08:14:53.700Z,1.70
2018-12-07T08:18:05.921Z,1.70
2018-12-07T08:21:17.001Z,1.67
2018-12-07T08:24:28.104Z,1.70
2018-12-07T08:27:39.930Z,2.10
2018-12-07T08:30:51.858Z,1.52
2018-12-07T08:34:02.867Z,1.70
2018-12-07T08:37:15.766Z,1.40
2018-12-07T08:40:29.209Z,1.40
2018-12-07T08:43:41.074Z,1.80
2018-12-07T08:46:53.240Z,11.83
2018-12-07T08:50:06.303Z,3.20
2018-12-07T08:53:17.267Z,13.10
2018-12-07T08:56:30.417Z,3.17
2018-12-07T08:59:43.427Z,4.20
2018-12-07T09:02:54.694Z,2.42
2018-12-07T09:06:06.432Z,2.13
2018-12-07T09:09:17.777Z,1.87
2018-12-07T09:12:29.897Z,2.58
2018-12-07T09:15:42.278Z,1.70
2018-12-07T09:18:53.966Z,2.42
2018-12-07T09:22:04.915Z,1.60
2018-12-07T09:25:17.270Z,2.00
2018-12-07T09:28:28.537Z,1.70
2018-12-07T09:31:42.081Z,1.50
2018-12-07T09:34:53.906Z,1.85
2018-12-07T09:38:12.977Z,1.90
2018-12-07T09:41:20.264Z,1.80
2018-12-07T09:44:32.356Z,1.55
2018-12-07T09:47:44.654Z,1.50
2018-12-07T09:50:56.223Z,1.70
2018-12-07T09:57:09.513Z,2.10
2018-12-07T10:00:21.433Z,1.60
2018-12-07T10:03:32.849Z,1.50
2018-12-07T10:06:43.824Z,1.40
2018-12-07T10:09:57.641Z,1.50
2018-12-07T10:13:09.773Z,1.70
2018-12-07T10:16:23.697Z,1.40
2018-12-07T10:19:34.619Z,1.40
2018-12-07T10:22:46.166Z,1.50
2018-12-07T10:25:57.338Z,1.62
2018-12-07T10:29:14.369Z,1.70
2018-12-07T10:32:26.590Z,2.13
2018-12-07T10:35:38.092Z,1.57
2018-12-07T10:38:49.090Z,1.43
2018-12-07T10:42:02.202Z,2.27
2018-12-07T10:45:13.833Z,2.00
2018-12-07T10:48:25.475Z,1.50
2018-12-07T10:51:36.874Z,5.53
2018-12-07T10:54:47.932Z,1.70
2018-12-07T10:57:59.644Z,1.57
2018-12-07T11:01:16.535Z,3.77
2018-12-07T11:04:33.292Z,1.60
2018-12-07T11:07:49.361Z,2.87
2018-12-07T11:14:32.240Z,1.90
2018-12-07T11:17:48.971Z,2.80
2018-12-07T11:21:06.978Z,2.10
2018-12-07T11:24:22.910Z,3.43
2018-12-07T11:27:39.747Z,2.50
2018-12-07T11:30:56.824Z,1.90
2018-12-07T11:34:12.537Z,3.92
2018-12-07T11:37:24.365Z,1.80
2018-12-07T11:40:35.544Z,1.70
2018-12-07T11:43:47.077Z,2.10
2018-12-07T11:46:58.843Z,2.05
2018-12-07T11:50:12.545Z,2.73
2018-12-07T11:53:24.352Z,5.08
2018-12-07T11:56:35.468Z,2.93
2018-12-07T11:59:47.727Z,2.80
2018-12-07T12:02:59.181Z,2.22
2018-12-07T12:06:10.322Z,2.10
2018-12-07T12:09:21.098Z,2.10
2018-12-07T12:12:33.812Z,2.70
2018-12-07T12:15:45.856Z,1.60
2018-12-07T12:18:57.447Z,2.37
2018-12-07T12:22:08.524Z,1.77
2018-12-07T12:27:34.397Z,2.00
2018-12-07T12:30:47.637Z,1.60
2018-12-07T12:33:59.263Z,1.80
2018-12-07T12:37:11.251Z,1.40
2018-12-07T12:40:23.158Z,1.40
2018-12-07T12:43:34.252Z,1.30
2018-12-07T13:01:37.583Z,1.40
2018-12-07T13:04:49.025Z,1.60
2018-12-07T13:08:01.484Z,2.30
2018-12-07T13:11:14.086Z,1.75
2018-12-07T13:14:26.874Z,1.60
2018-12-07T13:17:39.069Z,1.90
2018-12-07T13:20:51.207Z,1.60
2018-12-07T13:24:02.926Z,2.60
